Time;durP1;ratioP1;P1;durP2;ratioP2;P2;SDS_P1;SDS_P2;PMS_P1;PMS_P2;Temp;Humidity;BMP_temperature;BMP_pressure;BME280_temperature;BME280_humidity;BME280_pressure;Samples;Min_cycle;Max_cycle;Signal;HPM_P1;HPM_P2
2022/03/07 00:00:11;;;;;;;67.43;8.80;;;2.20;1.00;;;;;;4989221;28;20231;-82
2022/03/07 00:02:37;;;;;;;66.17;7.20;;;2.20;1.00;;;;;;4988060;28;20293;-83
2022/03/07 00:05:03;;;;;;;70.83;9.10;;;2.10;1.00;;;;;;4989111;28;20469;-83
2022/03/07 00:07:28;;;;;;;68.20;10.30;;;2.00;1.00;;;;;;4989230;28;20682;-82
2022/03/07 00:09:54;;;;;;;67.00;9.97;;;2.00;1.00;;;;;;4987798;28;20175;-83
2022/03/07 00:12:20;;;;;;;68.23;9.80;;;2.00;1.00;;;;;;4988114;28;20198;-83
2022/03/07 00:14:45;;;;;;;69.73;10.03;;;2.00;1.00;;;;;;4989518;28;20179;-82
2022/03/07 00:17:11;;;;;;;68.00;9.93;;;2.20;1.00;;;;;;4988364;28;20191;-83
2022/03/07 00:19:37;;;;;;;67.20;8.20;;;2.30;1.00;;;;;;4991276;28;20190;-83
2022/03/07 00:22:03;;;;;;;66.33;8.27;;;2.20;1.00;;;;;;4992192;28;20178;-82
2022/03/07 00:24:28;;;;;;;68.40;8.70;;;2.10;1.00;;;;;;4993553;28;20159;-83
2022/03/07 00:26:54;;;;;;;67.93;9.40;;;2.10;1.00;;;;;;4992680;28;20422;-83
2022/03/07 00:29:19;;;;;;;67.57;7.80;;;2.30;1.00;;;;;;4992518;28;20178;-83
2022/03/07 00:31:45;;;;;;;66.77;9.10;;;2.40;1.00;;;;;;4993608;28;20167;-83
2022/03/07 00:34:12;;;;;;;65.90;7.27;;;2.40;1.00;;;;;;4992672;28;20198;-83
2022/03/07 00:36:38;;;;;;;69.57;8.02;;;2.40;1.00;;;;;;4991668;28;20206;-83
2022/03/07 00:39:03;;;;;;;67.20;8.07;;;2.40;1.00;;;;;;4991681;28;20195;-83
2022/03/07 00:41:29;;;;;;;67.87;8.17;;;2.50;1.00;;;;;;4992428;28;20202;-83
2022/03/07 00:43:54;;;;;;;69.70;8.50;;;2.50;1.00;;;;;;4991148;28;20199;-83
2022/03/07 00:46:20;;;;;;;66.70;6.97;;;2.60;1.00;;;;;;4992182;28;20191;-83
2022/03/07 00:48:46;;;;;;;67.30;9.00;;;2.40;1.00;;;;;;4992620;28;20174;-83
2022/03/07 00:51:11;;;;;;;68.10;8.53;;;2.40;1.00;;;;;;4992130;28;20159;-82
2022/03/07 00:53:37;;;;;;;68.87;10.30;;;2.50;1.00;;;;;;4991743;28;20601;-82
2022/03/07 00:56:03;;;;;;;69.70;9.23;;;2.50;1.00;;;;;;4992775;28;20202;-82
2022/03/07 00:58:29;;;;;;;69.60;10.67;;;2.60;1.00;;;;;;4993117;28;20254;-82
2022/03/07 01:00:54;;;;;;;67.00;9.20;;;2.70;1.00;;;;;;4991777;28;20427;-83
2022/03/07 01:03:20;;;;;;;69.30;11.37;;;2.60;1.00;;;;;;4992092;28;20219;-83
2022/03/07 01:05:46;;;;;;;67.27;10.80;;;2.70;1.00;;;;;;4992282;28;20183;-83
2022/03/07 01:08:12;;;;;;;68.15;10.80;;;2.80;1.00;;;;;;4993093;28;20647;-83
2022/03/07 01:10:38;;;;;;;69.70;10.97;;;2.90;1.00;;;;;;4991342;28;20219;-83
2022/03/07 01:13:06;;;;;;;69.88;10.65;;;3.00;1.00;;;;;;4992432;28;20438;-83
2022/03/07 01:15:32;;;;;;;68.70;8.90;;;2.90;1.00;;;;;;4992498;28;20170;-83
2022/03/07 01:17:59;;;;;;;67.00;10.07;;;2.90;1.00;;;;;;4992110;28;20163;-83
2022/03/07 01:20:26;;;;;;;68.82;9.38;;;2.80;1.00;;;;;;4992896;28;20413;-83
2022/03/07 01:22:52;;;;;;;67.78;9.13;;;2.80;1.00;;;;;;4990616;28;20195;-83
2022/03/07 01:25:17;;;;;;;69.60;11.90;;;2.90;1.00;;;;;;4991604;28;20170;-83
2022/03/07 01:27:43;;;;;;;68.97;10.83;;;2.90;1.00;;;;;;4990772;28;20810;-83
2022/03/07 01:30:09;;;;;;;69.03;10.80;;;3.00;1.00;;;;;;4991810;28;20164;-83
2022/03/07 01:32:35;;;;;;;68.50;9.90;;;3.00;1.00;;;;;;4990797;28;20270;-83
2022/03/07 01:35:01;;;;;;;68.23;9.80;;;3.00;1.00;;;;;;4992514;28;20537;-83
2022/03/07 01:37:27;;;;;;;67.97;10.07;;;3.00;1.00;;;;;;4991947;28;20430;-83
2022/03/07 01:39:53;;;;;;;68.67;9.83;;;3.00;1.00;;;;;;4990779;28;20571;-83
2022/03/07 01:42:18;;;;;;;69.20;11.83;;;3.00;1.00;;;;;;4991021;28;20213;-83
2022/03/07 01:44:44;;;;;;;69.20;9.47;;;3.00;1.00;;;;;;4991977;28;20171;-83
2022/03/07 01:47:10;;;;;;;68.70;8.13;;;2.90;1.00;;;;;;4992229;28;20187;-83
2022/03/07 01:49:35;;;;;;;68.20;9.00;;;3.00;1.00;;;;;;4992022;28;20174;-83
2022/03/07 01:52:01;;;;;;;68.10;8.80;;;3.00;1.00;;;;;;4991276;28;20202;-83
2022/03/07 01:54:27;;;;;;;71.60;8.63;;;2.90;1.00;;;;;;4991277;28;20175;-83
2022/03/07 01:56:54;;;;;;;66.13;7.70;;;2.90;1.00;;;;;;4991451;28;20481;-83
2022/03/07 01:59:23;;;;;;;67.78;7.82;;;2.90;1.00;;;;;;4991423;28;20170;-83
2022/03/07 02:01:49;;;;;;;68.65;6.93;;;2.90;1.00;;;;;;4991177;28;20183;-83
2022/03/07 02:04:16;;;;;;;68.65;7.35;;;2.90;1.00;;;;;;4989741;28;20195;-83
2022/03/07 02:06:41;;;;;;;69.05;8.70;;;2.80;1.00;;;;;;4990968;28;20206;-83
2022/03/07 02:09:08;;;;;;;71.63;8.17;;;2.80;1.00;;;;;;4990894;28;20175;-84
2022/03/07 02:11:35;;;;;;;68.60;7.25;;;2.80;1.00;;;;;;4989834;28;20178;-84
2022/03/07 02:14:30;;;;;;;67.95;6.72;;;2.80;1.00;;;;;;4990836;28;20175;-83
2022/03/07 02:16:56;;;;;;;68.07;7.47;;;2.80;1.00;;;;;;4981793;28;20211;-83
2022/03/07 02:19:22;;;;;;;68.70;8.70;;;2.70;1.00;;;;;;4990818;28;20173;-83
2022/03/07 02:21:51;;;;;;;67.80;7.90;;;2.70;1.00;;;;;;4991033;28;20470;-83
2022/03/07 02:24:18;;;;;;;67.60;7.20;;;2.70;1.00;;;;;;4990782;28;20543;-83
2022/03/07 02:26:55;;;;;;;67.50;7.53;;;2.70;1.00;;;;;;4990602;28;20202;-83
2022/03/07 02:29:22;;;;;;;67.15;8.45;;;2.60;1.00;;;;;;4990463;28;20147;-83
2022/03/07 02:31:48;;;;;;;67.68;8.48;;;2.60;1.00;;;;;;4990497;28;20182;-83
2022/03/07 02:34:14;;;;;;;67.77;7.83;;;2.60;1.00;;;;;;4990509;28;20167;-83
2022/03/07 02:36:40;;;;;;;67.80;6.00;;;2.60;1.00;;;;;;4990023;28;20555;-83
2022/03/07 02:39:06;;;;;;;71.40;9.10;;;2.50;1.00;;;;;;4990894;28;20172;-83
2022/03/07 02:41:32;;;;;;;68.93;7.90;;;2.40;1.00;;;;;;4988803;28;20647;-83
2022/03/07 02:43:58;;;;;;;66.40;7.10;;;2.20;1.00;;;;;;4989706;28;20195;-83
2022/03/07 02:46:23;;;;;;;66.60;8.37;;;2.00;1.00;;;;;;4989314;28;20191;-83
2022/03/07 02:48:49;;;;;;;67.47;7.10;;;2.00;1.00;;;;;;4990380;28;20403;-83
2022/03/07 02:51:15;;;;;;;67.00;6.80;;;1.80;1.00;;;;;;4989115;28;20178;-83
2022/03/07 02:53:40;;;;;;;67.70;6.80;;;1.80;1.00;;;;;;4990318;28;20223;-83
2022/03/07 02:56:06;;;;;;;70.70;7.40;;;1.80;1.00;;;;;;4990715;28;20195;-83
2022/03/07 02:58:32;;;;;;;65.97;6.93;;;1.80;1.00;;;;;;4989740;28;20182;-83
2022/03/07 03:00:57;;;;;;;66.50;8.07;;;1.80;1.00;;;;;;4989141;28;20175;-83
2022/03/07 03:03:23;;;;;;;67.17;7.50;;;1.90;1.00;;;;;;4989799;28;20206;-83
2022/03/07 03:05:49;;;;;;;69.57;8.50;;;1.90;1.00;;;;;;4989603;28;20194;-83
2022/03/07 03:08:16;;;;;;;67.37;7.80;;;1.80;1.00;;;;;;4990019;28;20210;-83
2022/03/07 03:10:42;;;;;;;66.63;8.00;;;1.90;1.00;;;;;;4989268;28;20174;-83
2022/03/07 03:13:08;;;;;;;66.23;8.30;;;2.00;1.00;;;;;;4988910;28;20170;-83
2022/03/07 03:15:34;;;;;;;72.78;9.18;;;2.10;1.00;;;;;;4989554;28;20168;-83
2022/03/07 03:18:00;;;;;;;67.13;7.90;;;2.20;1.00;;;;;;4988565;28;20167;-83
2022/03/07 03:20:25;;;;;;;66.50;7.77;;;2.20;1.00;;;;;;4989644;28;20163;-83
2022/03/07 03:22:51;;;;;;;69.00;8.77;;;2.20;1.00;;;;;;4988200;28;20283;-83
2022/03/07 03:25:17;;;;;;;67.57;8.23;;;2.20;1.00;;;;;;4989089;28;20174;-83
2022/03/07 03:27:42;;;;;;;67.57;8.57;;;2.10;1.00;;;;;;4988228;28;20187;-83
2022/03/07 03:30:10;;;;;;;68.10;6.60;;;2.10;1.00;;;;;;4989893;28;20170;-83
2022/03/07 03:32:36;;;;;;;68.32;7.60;;;1.90;1.00;;;;;;4988567;28;20414;-83
2022/03/07 03:35:02;;;;;;;67.67;7.00;;;1.80;1.00;;;;;;4989576;28;20173;-84
2022/03/07 03:37:27;;;;;;;67.00;8.27;;;1.70;1.00;;;;;;4988201;28;20434;-83
2022/03/07 03:39:54;;;;;;;66.30;6.53;;;1.40;1.00;;;;;;4989375;28;20409;-84
2022/03/07 03:42:21;;;;;;;66.90;7.25;;;1.30;1.00;;;;;;4987683;28;20246;-83
2022/03/07 03:44:48;;;;;;;68.43;8.85;;;1.20;1.00;;;;;;4989557;28;20647;-83
2022/03/07 03:47:13;;;;;;;67.20;7.80;;;1.20;1.00;;;;;;4989551;28;20241;-83
2022/03/07 03:49:39;;;;;;;67.60;8.13;;;1.10;1.00;;;;;;4989350;28;20171;-84
2022/03/07 03:52:06;;;;;;;67.87;8.03;;;1.10;1.00;;;;;;4989279;28;20433;-84
2022/03/07 03:54:31;;;;;;;66.95;7.65;;;1.10;1.00;;;;;;4991289;28;20159;-84
2022/03/07 03:56:57;;;;;;;66.90;7.87;;;1.00;1.00;;;;;;4993381;28;20265;-84
2022/03/07 03:59:26;;;;;;;66.00;7.23;;;1.10;1.00;;;;;;4993703;28;20166;-84
2022/03/07 04:01:51;;;;;;;67.38;7.45;;;1.20;1.00;;;;;;4993770;28;20171;-84
2022/03/07 04:04:17;;;;;;;67.77;7.77;;;1.30;1.00;;;;;;4993618;28;20697;-84
2022/03/07 04:06:43;;;;;;;69.45;6.90;;;1.40;1.00;;;;;;4993908;28;20190;-84
2022/03/07 04:09:17;;;;;;;68.37;7.70;;;1.40;1.00;;;;;;4993416;28;20182;-84
2022/03/07 04:11:43;;;;;;;66.78;7.38;;;1.50;1.00;;;;;;4992947;28;20159;-83
2022/03/07 04:14:09;;;;;;;66.30;6.83;;;1.60;1.00;;;;;;4994051;28;20174;-84
2022/03/07 04:16:38;;;;;;;67.17;7.20;;;1.60;1.00;;;;;;4992947;28;20791;-84
2022/03/07 04:19:06;;;;;;;67.22;7.18;;;1.70;1.00;;;;;;4993586;28;20418;-84
2022/03/07 04:21:32;;;;;;;65.70;6.25;;;1.70;1.00;;;;;;4993193;28;20167;-83
2022/03/07 04:23:58;;;;;;;68.00;7.78;;;1.70;1.00;;;;;;4993776;28;20191;-84
2022/03/07 04:26:24;;;;;;;67.70;7.70;;;1.70;1.00;;;;;;4994037;28;20202;-83
2022/03/07 04:28:49;;;;;;;68.33;8.60;;;1.80;1.00;;;;;;4993819;28;20179;-83
2022/03/07 04:31:15;;;;;;;67.60;8.50;;;1.80;1.00;;;;;;4992628;28;20624;-84
2022/03/07 04:33:44;;;;;;;68.70;6.83;;;1.80;1.00;;;;;;4992362;28;20210;-84
2022/03/07 04:36:14;;;;;;;69.05;7.80;;;1.80;1.00;;;;;;4993212;28;20237;-84
2022/03/07 04:38:40;;;;;;;67.05;7.47;;;1.70;1.00;;;;;;4992907;28;20174;-84
2022/03/07 04:41:06;;;;;;;67.50;7.90;;;1.70;1.00;;;;;;4992355;28;20171;-84
2022/03/07 04:43:32;;;;;;;67.20;7.90;;;1.70;1.00;;;;;;4991702;28;20457;-84
2022/03/07 04:45:58;;;;;;;69.38;8.50;;;1.70;1.00;;;;;;4992153;28;20183;-84
2022/03/07 04:48:24;;;;;;;68.60;6.28;;;1.60;1.00;;;;;;4991385;28;20174;-84
2022/03/07 04:50:53;;;;;;;67.87;7.57;;;1.60;1.00;;;;;;4991941;28;20155;-85
2022/03/07 04:53:19;;;;;;;67.30;6.63;;;1.60;1.00;;;;;;4992615;28;20406;-85
2022/03/07 04:55:44;;;;;;;66.97;6.90;;;1.60;1.00;;;;;;4992076;28;20187;-84
2022/03/07 04:58:10;;;;;;;65.77;6.50;;;1.60;1.00;;;;;;4990850;28;20415;-84
2022/03/07 05:00:36;;;;;;;67.50;6.23;;;1.60;1.00;;;;;;4991517;28;20178;-84
2022/03/07 05:03:01;;;;;;;66.67;6.70;;;1.50;1.00;;;;;;4989760;28;20205;-85
2022/03/07 05:05:27;;;;;;;66.90;7.40;;;1.60;1.00;;;;;;4989138;28;20171;-85
2022/03/07 05:07:53;;;;;;;68.23;7.20;;;1.50;1.00;;;;;;4990707;28;20190;-85
2022/03/07 05:10:19;;;;;;;69.15;6.13;;;1.50;1.00;;;;;;4990678;28;20176;-84
2022/03/07 05:12:46;;;;;;;67.07;7.40;;;1.40;1.00;;;;;;4990901;28;20662;-85
2022/03/07 05:15:12;;;;;;;68.93;6.80;;;1.40;1.00;;;;;;4989315;28;20175;-85
2022/03/07 05:17:46;;;;;;;73.13;7.80;;;1.40;1.00;;;;;;4986065;28;20246;-85
2022/03/07 05:20:17;;;;;;;71.95;7.25;;;1.40;1.00;;;;;;4990741;28;20413;-85
2022/03/07 05:22:44;;;;;;;69.13;6.90;;;1.40;1.00;;;;;;4988722;28;20183;-85
2022/03/07 05:25:11;;;;;;;69.40;7.40;;;1.40;1.00;;;;;;4989143;28;20643;-85
2022/03/07 05:27:38;;;;;;;66.40;6.38;;;1.40;1.00;;;;;;4989177;28;20183;-85
2022/03/07 05:30:05;;;;;;;67.20;7.30;;;1.30;1.00;;;;;;4989860;28;20167;-85
2022/03/07 05:32:31;;;;;;;68.85;7.40;;;1.30;1.00;;;;;;4989515;28;20171;-85
2022/03/07 05:34:58;;;;;;;66.40;6.67;;;1.30;1.00;;;;;;4988572;28;20658;-85
2022/03/07 05:37:23;;;;;;;65.70;6.38;;;1.30;1.00;;;;;;4989581;28;20210;-85
2022/03/07 05:39:49;;;;;;;66.85;6.35;;;1.30;1.00;;;;;;4988569;28;20238;-85
2022/03/07 05:42:15;;;;;;;67.97;6.90;;;1.20;1.00;;;;;;4988532;28;20242;-85
2022/03/07 05:44:41;;;;;;;69.93;7.33;;;1.30;1.00;;;;;;4988300;28;20230;-85
2022/03/07 05:47:06;;;;;;;67.10;7.70;;;1.20;1.00;;;;;;4988088;28;20191;-85
2022/03/07 05:49:32;;;;;;;67.87;7.30;;;1.20;1.00;;;;;;4988411;28;20167;-85
2022/03/07 05:51:58;;;;;;;69.33;6.97;;;1.20;1.00;;;;;;4988632;28;20690;-85
2022/03/07 05:54:23;;;;;;;69.03;7.70;;;1.20;1.00;;;;;;4988884;28;20236;-85
2022/03/07 05:56:49;;;;;;;67.40;7.10;;;1.20;1.00;;;;;;4989052;28;20191;-85
2022/03/07 05:59:15;;;;;;;69.90;7.70;;;1.20;1.00;;;;;;4987533;28;20186;-85
2022/03/07 06:01:40;;;;;;;69.47;7.53;;;1.20;1.00;;;;;;4988545;28;20175;-85
2022/03/07 06:04:06;;;;;;;69.07;7.30;;;1.10;1.00;;;;;;4987391;28;20223;-85
2022/03/07 06:06:32;;;;;;;70.67;7.73;;;1.10;1.00;;;;;;4987731;28;20195;-85
2022/03/07 06:08:57;;;;;;;69.30;8.30;;;1.10;1.00;;;;;;4989670;28;20182;-85
2022/03/07 06:11:23;;;;;;;70.07;8.60;;;1.00;1.00;;;;;;4988829;28;20170;-85
2022/03/07 06:13:52;;;;;;;70.73;8.77;;;1.00;1.00;;;;;;4989119;28;20167;-85
2022/03/07 06:16:17;;;;;;;70.07;8.52;;;1.10;1.00;;;;;;4987095;28;20191;-85
2022/03/07 06:18:43;;;;;;;71.83;9.20;;;1.00;1.00;;;;;;4987795;28;20171;-85
2022/03/07 06:21:09;;;;;;;70.03;7.83;;;0.90;1.00;;;;;;4987993;28;20402;-86
2022/03/07 06:23:36;;;;;;;71.87;8.80;;;0.90;1.00;;;;;;4985991;28;20187;-85
2022/03/07 06:26:04;;;;;;;68.30;7.85;;;0.90;1.00;;;;;;4986428;28;20183;-86
2022/03/07 06:28:32;;;;;;;71.22;7.72;;;0.90;1.00;;;;;;4986868;28;20581;-86
2022/03/07 06:30:59;;;;;;;70.25;7.05;;;0.90;1.00;;;;;;4985687;28;20163;-86
2022/03/07 06:33:24;;;;;;;75.22;8.02;;;0.90;1.00;;;;;;4986857;28;20635;-86
2022/03/07 06:35:50;;;;;;;71.77;7.03;;;0.90;1.00;;;;;;4986935;28;20218;-86
2022/03/07 06:38:17;;;;;;;70.70;8.90;;;1.00;1.00;;;;;;4986394;28;20229;-86
2022/03/07 06:40:43;;;;;;;69.25;7.30;;;0.90;1.70;;;;;;4985551;28;20183;-86
2022/03/07 06:43:09;;;;;;;69.43;7.67;;;0.90;1.30;;;;;;4986690;28;20187;-86
2022/03/07 06:45:35;;;;;;;67.20;6.93;;;0.80;2.20;;;;;;4985821;28;20174;-85
2022/03/07 06:48:00;;;;;;;68.20;7.17;;;0.70;4.30;;;;;;4985630;28;20426;-86
2022/03/07 06:50:27;;;;;;;72.97;8.07;;;0.50;4.50;;;;;;4985252;28;20261;-86
2022/03/07 06:52:52;;;;;;;67.70;8.32;;;0.40;9.10;;;;;;4988768;28;20186;-86
2022/03/07 06:55:18;;;;;;;70.40;8.73;;;0.40;9.00;;;;;;4990510;28;20239;-86
2022/03/07 06:57:44;;;;;;;68.40;7.50;;;0.40;7.40;;;;;;4989197;28;20175;-86
2022/03/07 07:00:15;;;;;;;72.35;8.95;;;0.50;7.40;;;;;;4989814;28;20925;-85
2022/03/07 07:02:41;;;;;;;69.55;7.97;;;0.50;6.20;;;;;;4988061;28;20262;-88
2022/03/07 07:05:08;;;;;;;74.03;9.33;;;0.50;5.20;;;;;;4980199;28;20191;-85
2022/03/07 07:07:36;;;;;;;69.18;8.93;;;0.50;3.60;;;;;;4990270;28;20455;-86
2022/03/07 07:10:02;;;;;;;69.20;7.60;;;0.50;3.40;;;;;;4988125;28;20175;-85
2022/03/07 07:12:28;;;;;;;67.68;7.53;;;0.50;3.30;;;;;;4988643;28;20223;-84
2022/03/07 07:14:54;;;;;;;69.70;8.10;;;0.50;2.80;;;;;;4980597;28;20644;-83
2022/03/07 07:17:20;;;;;;;71.03;9.00;;;0.50;2.10;;;;;;4980229;28;20195;-85
2022/03/07 07:19:46;;;;;;;69.43;9.38;;;0.50;2.00;;;;;;4984139;28;20183;-86
2022/03/07 07:22:12;;;;;;;68.27;9.30;;;0.60;2.10;;;;;;4982907;28;20163;-83
2022/03/07 07:24:38;;;;;;;68.20;9.40;;;0.60;1.00;;;;;;4981446;28;20810;-84
2022/03/07 07:27:04;;;;;;;67.47;8.90;;;0.60;1.00;;;;;;4985013;28;20450;-86
2022/03/07 07:29:30;;;;;;;69.85;8.13;;;0.60;1.00;;;;;;4987370;28;20402;-85
2022/03/07 07:31:55;;;;;;;70.80;8.37;;;0.70;1.00;;;;;;4988342;28;20171;-85
2022/03/07 07:34:22;;;;;;;69.80;8.00;;;0.80;1.00;;;;;;4988260;28;20276;-85
2022/03/07 07:36:48;;;;;;;68.18;8.85;;;0.80;1.00;;;;;;4987241;28;20442;-86
2022/03/07 07:39:15;;;;;;;69.82;9.65;;;0.80;1.00;;;;;;4985182;28;20163;-85
2022/03/07 07:41:41;;;;;;;68.60;7.78;;;0.90;1.00;;;;;;4984440;28;20194;-85
2022/03/07 07:44:07;;;;;;;67.87;7.70;;;0.90;1.00;;;;;;4984382;28;20659;-84
2022/03/07 07:46:33;;;;;;;73.30;8.20;;;1.00;1.00;;;;;;4984717;28;20451;-83
2022/03/07 07:48:58;;;;;;;68.60;7.60;;;1.00;1.00;;;;;;4983778;28;20420;-85
2022/03/07 07:51:24;;;;;;;70.50;8.30;;;1.10;1.00;;;;;;4985087;28;20450;-84
2022/03/07 07:53:50;;;;;;;70.07;8.17;;;1.20;1.00;;;;;;4986741;28;20171;-84
2022/03/07 07:56:16;;;;;;;68.00;7.00;;;1.30;1.00;;;;;;4987106;28;20194;-85
2022/03/07 07:58:41;;;;;;;70.77;9.20;;;1.30;1.00;;;;;;4984994;28;20410;-86
2022/03/07 08:01:07;;;;;;;68.30;7.17;;;1.40;1.00;;;;;;4982852;28;20190;-85
2022/03/07 08:03:33;;;;;;;70.30;8.03;;;1.50;1.00;;;;;;4986752;28;20191;-84
2022/03/07 08:05:59;;;;;;;68.37;7.77;;;1.50;1.00;;;;;;4986979;28;20190;-84
2022/03/07 08:08:26;;;;;;;68.43;8.05;;;1.60;1.00;;;;;;4987236;28;20516;-82
2022/03/07 08:10:51;;;;;;;69.32;7.10;;;1.60;1.00;;;;;;4987544;28;20171;-84
2022/03/07 08:13:17;;;;;;;70.27;7.43;;;1.70;1.00;;;;;;4986133;28;20183;-84
2022/03/07 08:15:43;;;;;;;68.90;8.00;;;1.70;1.00;;;;;;4983950;28;20663;-83
2022/03/07 08:18:09;;;;;;;68.28;7.55;;;1.70;1.00;;;;;;4985967;28;20411;-85
2022/03/07 08:20:35;;;;;;;67.83;7.07;;;1.70;1.00;;;;;;4985188;28;20182;-84
2022/03/07 08:23:02;;;;;;;71.03;8.50;;;1.80;1.00;;;;;;4982276;28;20273;-84
2022/03/07 08:25:27;;;;;;;68.88;7.53;;;1.70;1.00;;;;;;4983108;28;20258;-84
2022/03/07 08:27:54;;;;;;;67.47;7.90;;;1.80;1.00;;;;;;4984052;28;20195;-84
2022/03/07 08:30:22;;;;;;;66.70;7.07;;;1.90;1.00;;;;;;4984038;28;20167;-84
2022/03/07 08:32:48;;;;;;;67.03;7.68;;;1.90;1.00;;;;;;4982593;28;20178;-84
2022/03/07 08:35:15;;;;;;;68.90;7.10;;;2.00;1.00;;;;;;4984716;28;20159;-84
2022/03/07 08:37:43;;;;;;;69.03;7.50;;;2.00;1.00;;;;;;4983310;28;20422;-84
2022/03/07 08:40:10;;;;;;;68.70;7.75;;;2.10;1.00;;;;;;4983504;28;20217;-83
2022/03/07 08:42:36;;;;;;;67.95;7.40;;;2.20;1.00;;;;;;4990264;28;20285;-83
2022/03/07 08:45:03;;;;;;;66.95;7.18;;;2.20;1.00;;;;;;4993655;28;20178;-84
2022/03/07 08:47:29;;;;;;;69.22;8.52;;;2.30;1.00;;;;;;4991937;28;20187;-84
2022/03/07 08:49:56;;;;;;;70.40;7.57;;;2.30;1.00;;;;;;4989719;28;20171;-82
2022/03/07 08:52:22;;;;;;;67.45;8.32;;;2.30;1.00;;;;;;4988731;28;20168;-82
2022/03/07 08:54:47;;;;;;;68.50;7.50;;;2.40;1.00;;;;;;4988298;28;20195;-84
2022/03/07 08:57:14;;;;;;;71.90;11.07;;;2.40;1.00;;;;;;4988156;28;20441;-83
2022/03/07 08:59:40;;;;;;;65.82;7.28;;;2.40;1.00;;;;;;4984764;28;20255;-84
2022/03/07 09:02:07;;;;;;;67.47;8.27;;;2.30;1.00;;;;;;4988492;28;20171;-85
2022/03/07 09:04:33;;;;;;;66.75;8.50;;;2.30;1.00;;;;;;4988057;28;20533;-84
2022/03/07 09:06:58;;;;;;;67.07;8.43;;;2.40;1.00;;;;;;4988341;28;20257;-84
2022/03/07 09:09:24;;;;;;;68.50;9.70;;;2.40;1.00;;;;;;4987862;28;20155;-84
2022/03/07 09:11:50;;;;;;;66.35;7.95;;;2.40;1.00;;;;;;4987225;28;20167;-85
2022/03/07 09:14:16;;;;;;;66.57;7.70;;;2.40;1.00;;;;;;4988881;28;20178;-84
2022/03/07 09:16:42;;;;;;;68.30;10.73;;;2.50;1.00;;;;;;4988224;28;20199;-83
2022/03/07 09:19:08;;;;;;;68.78;8.50;;;2.50;1.00;;;;;;4991778;28;20403;-84
2022/03/07 09:21:35;;;;;;;66.43;10.10;;;2.50;1.00;;;;;;4988377;28;20206;-85
2022/03/07 09:24:01;;;;;;;70.70;8.52;;;2.50;1.00;;;;;;4989117;28;20852;-85
2022/03/07 09:26:26;;;;;;;67.90;9.53;;;2.50;1.00;;;;;;4989301;28;20187;-85
2022/03/07 09:28:52;;;;;;;66.60;7.93;;;2.50;1.00;;;;;;4990089;28;20748;-85
2022/03/07 09:31:21;;;;;;;69.00;7.63;;;2.60;1.00;;;;;;4989143;28;20170;-85
2022/03/07 09:33:47;;;;;;;69.30;10.13;;;2.70;1.00;;;;;;4988262;28;20167;-85
2022/03/07 09:36:15;;;;;;;67.77;8.53;;;2.80;1.00;;;;;;4988095;28;20266;-84
2022/03/07 09:38:43;;;;;;;67.40;7.60;;;2.90;1.00;;;;;;4987810;28;20194;-85
2022/03/07 09:41:09;;;;;;;66.97;6.22;;;2.90;1.00;;;;;;4988651;28;20167;-85
2022/03/07 09:43:35;;;;;;;66.63;6.57;;;3.00;1.00;;;;;;4987762;28;20218;-85
2022/03/07 09:46:01;;;;;;;67.13;8.18;;;3.10;1.00;;;;;;4987026;28;20423;-85
2022/03/07 09:48:27;;;;;;;67.00;6.90;;;3.10;1.00;;;;;;4990362;28;20218;-85
2022/03/07 09:50:52;;;;;;;67.30;7.37;;;3.20;1.00;;;;;;4986702;28;20782;-85
2022/03/07 09:53:18;;;;;;;68.60;6.47;;;3.30;1.00;;;;;;4984892;28;20190;-84
2022/03/07 09:55:46;;;;;;;67.20;7.50;;;3.40;1.00;;;;;;4989838;28;20186;-85
2022/03/07 09:58:13;;;;;;;68.28;6.88;;;3.50;1.00;;;;;;4985572;28;20411;-84
2022/03/07 10:00:43;;;;;;;69.00;6.97;;;3.50;1.00;;;;;;4988076;28;20163;-85
2022/03/07 10:03:14;;;;;;;67.90;7.53;;;3.50;1.00;;;;;;4987256;28;20199;-85
2022/03/07 10:05:46;;;;;;;69.55;8.32;;;3.70;1.00;;;;;;4985677;28;20183;-85
2022/03/07 10:08:25;;;;;;;67.82;10.98;;;3.60;1.00;;;;;;4985898;28;20295;-85
2022/03/07 10:10:55;;;;;;;72.15;9.98;;;3.70;1.00;;;;;;4986916;28;20151;-85
2022/03/07 10:13:23;;;;;;;67.40;9.32;;;3.70;1.00;;;;;;4986256;28;20175;-85
2022/03/07 10:16:00;;;;;;;69.30;12.70;;;3.80;1.00;;;;;;4988444;28;20194;-85
2022/03/07 10:18:27;;;;;;;69.00;12.18;;;3.90;1.00;;;;;;4989827;28;20182;-85
2022/03/07 10:20:57;;;;;;;67.25;10.10;;;4.10;1.00;;;;;;4990745;28;20175;-86
2022/03/07 10:23:30;;;;;;;68.50;9.35;;;4.40;1.00;;;;;;4988842;28;20286;-85
2022/03/07 10:26:07;;;;;;;65.15;7.28;;;4.50;1.00;;;;;;4989785;28;20187;-85
2022/03/07 10:28:37;;;;;;;68.32;8.25;;;4.40;1.00;;;;;;4989663;28;20175;-85
2022/03/07 10:31:14;;;;;;;68.53;9.65;;;4.50;1.00;;;;;;4987247;28;20187;-85
2022/03/07 10:33:40;;;;;;;67.43;10.13;;;4.40;1.00;;;;;;4985116;28;20170;-85
2022/03/07 10:36:06;;;;;;;68.67;15.47;;;4.50;1.00;;;;;;4985283;28;20195;-85
2022/03/07 10:38:31;;;;;;;69.60;15.40;;;4.60;1.00;;;;;;4986075;28;20171;-85
2022/03/07 10:40:57;;;;;;;69.37;15.10;;;4.70;1.00;;;;;;4986123;28;20254;-85
2022/03/07 10:43:23;;;;;;;76.03;20.90;;;4.80;1.00;;;;;;4985936;28;20199;-86
2022/03/07 10:46:01;;;;;;;69.00;16.20;;;4.90;1.00;;;;;;4984509;28;20184;-85
2022/03/07 10:48:41;;;;;;;68.35;16.58;;;4.60;1.00;;;;;;4986532;28;20211;-85
2022/03/07 10:51:15;;;;;;;68.80;16.80;;;4.60;1.00;;;;;;4985593;28;20643;-85
2022/03/07 10:53:41;;;;;;;67.82;16.33;;;4.70;1.00;;;;;;4986505;28;20164;-85
2022/03/07 10:56:08;;;;;;;70.75;17.02;;;4.70;1.00;;;;;;4984807;28;20191;-85
2022/03/07 10:58:44;;;;;;;70.32;15.07;;;4.90;1.00;;;;;;4986202;28;20168;-84
2022/03/07 11:01:09;;;;;;;68.15;14.20;;;5.10;1.00;;;;;;4986477;28;20210;-85
2022/03/07 11:03:38;;;;;;;71.37;11.70;;;5.30;1.00;;;;;;4984539;28;20222;-85
2022/03/07 11:06:03;;;;;;;69.20;9.77;;;5.40;1.00;;;;;;4989696;28;20211;-84
2022/03/07 11:08:30;;;;;;;66.87;11.63;;;5.40;1.00;;;;;;5099653;23;20222;-87
2022/03/07 11:10:58;;;;;;;66.28;7.22;;;5.40;1.00;;;;;;4996020;28;20657;-86
2022/03/07 11:13:29;;;;;;;66.10;8.65;;;5.50;1.00;;;;;;5012758;28;20198;-87
2022/03/07 11:15:57;;;;;;;68.65;14.57;;;5.70;1.00;;;;;;4996334;28;20270;-87
2022/03/07 11:18:23;;;;;;;71.47;21.45;;;5.70;1.00;;;;;;4995521;28;20170;-87
2022/03/07 11:20:50;;;;;;;72.07;25.45;;;5.80;1.00;;;;;;5000458;28;20189;-87
2022/03/07 11:23:23;;;;;;;71.10;23.77;;;5.80;1.00;;;;;;4999776;28;20674;-87
2022/03/07 11:25:53;;;;;;;71.03;22.85;;;6.10;1.00;;;;;;4999537;28;20190;-86
2022/03/07 11:28:23;;;;;;;69.65;20.48;;;6.20;1.00;;;;;;4999135;28;20205;-87
2022/03/07 11:30:49;;;;;;;66.72;10.45;;;6.10;1.00;;;;;;4998396;28;20169;-87
2022/03/07 11:33:25;;;;;;;70.07;12.53;;;6.00;1.00;;;;;;4999933;28;20537;-87
2022/03/07 11:35:53;;;;;;;65.95;7.97;;;6.00;1.00;;;;;;4999576;28;20463;-86
2022/03/07 11:38:25;;;;;;;65.97;10.13;;;6.10;1.00;;;;;;5000475;28;20242;-86
2022/03/07 11:41:00;;;;;;;65.68;10.73;;;6.20;1.00;;;;;;5001278;28;20147;-86
2022/03/07 11:43:27;;;;;;;67.03;9.18;;;6.50;1.00;;;;;;4999416;28;20185;-87
2022/03/07 11:45:54;;;;;;;67.80;16.90;;;6.60;1.00;;;;;;4999910;28;20300;-87
2022/03/07 11:48:20;;;;;;;67.10;10.50;;;6.70;1.00;;;;;;5001927;28;20634;-86
2022/03/07 11:50:46;;;;;;;70.43;23.40;;;6.60;1.00;;;;;;5000060;28;20278;-86
2022/03/07 11:53:14;;;;;;;70.00;22.60;;;6.80;1.00;;;;;;5000280;28;20441;-87
2022/03/07 11:55:49;;;;;;;71.80;22.65;;;6.70;1.00;;;;;;4996989;28;20520;-87
2022/03/07 11:58:31;;;;;;;68.68;20.83;;;6.80;1.00;;;;;;4997731;28;20154;-87
2022/03/07 12:01:24;;;;;;;69.43;22.98;;;6.80;1.00;;;;;;4997922;28;20180;-87
2022/03/07 12:03:51;;;;;;;68.72;19.90;;;6.90;1.00;;;;;;4996565;28;20226;-87
2022/03/07 12:06:19;;;;;;;70.18;19.83;;;7.00;1.00;;;;;;5002298;28;20539;-87
2022/03/07 12:08:52;;;;;;;68.32;19.33;;;7.00;1.00;;;;;;4996583;28;20182;-87
2022/03/07 12:11:31;;;;;;;66.93;14.20;;;6.90;1.00;;;;;;4996699;28;20151;-86
2022/03/07 12:14:03;;;;;;;65.60;9.10;;;6.80;1.00;;;;;;4995123;28;20189;-87
2022/03/07 12:16:38;;;;;;;67.30;14.32;;;6.90;1.00;;;;;;5003987;28;20698;-86
2022/03/07 12:19:08;;;;;;;69.25;13.80;;;7.10;1.00;;;;;;5002654;28;20177;-86
2022/03/07 12:21:36;;;;;;;65.07;8.80;;;7.40;1.00;;;;;;5005864;28;20217;-87
2022/03/07 12:24:05;;;;;;;66.15;9.27;;;7.40;1.00;;;;;;5005063;28;20694;-87
2022/03/07 12:26:31;;;;;;;65.60;10.20;;;7.40;1.00;;;;;;5003933;28;20190;-87
2022/03/07 12:28:57;;;;;;;67.10;11.45;;;7.40;1.00;;;;;;5003013;28;20186;-87
2022/03/07 12:31:22;;;;;;;66.53;10.83;;;7.70;1.00;;;;;;5002568;28;20166;-87
2022/03/07 12:33:48;;;;;;;70.27;18.43;;;7.70;1.00;;;;;;5004887;28;20166;-86
2022/03/07 12:36:15;;;;;;;69.20;21.50;;;7.90;1.00;;;;;;5006375;28;20187;-86
2022/03/07 12:38:53;;;;;;;70.00;21.27;;;8.00;1.00;;;;;;5006797;28;20444;-87
2022/03/07 12:41:27;;;;;;;68.53;17.40;;;7.90;1.00;;;;;;5003862;28;20206;-84
2022/03/07 12:43:53;;;;;;;67.20;16.13;;;7.60;1.00;;;;;;5002224;28;20197;-84
2022/03/07 12:46:18;;;;;;;69.57;23.50;;;7.40;1.00;;;;;;5001369;28;20186;-84
2022/03/07 12:48:45;;;;;;;67.83;19.03;;;7.40;1.00;;;;;;5003183;28;20406;-84
2022/03/07 12:51:19;;;;;;;69.65;22.58;;;7.60;1.00;;;;;;5004596;28;20486;-84
2022/03/07 12:53:53;;;;;;;69.35;22.27;;;7.60;1.00;;;;;;5005825;28;20174;-84